Time;durP1;ratioP1;P1;durP2;ratioP2;P2;SDS_P1;SDS_P2;PMS_P1;PMS_P2;Temp;Humidity;BMP_temperature;BMP_pressure;BME280_temperature;BME280_humidity;BME280_pressure;Samples;Min_cycle;Max_cycle;Signal;HPM_P1;HPM_P2
2021/05/04 00:00:05;;;;;;;12.68;4.97;;;;;;;;;;5077328;28;20313;-76
2021/05/04 00:02:31;;;;;;;7.32;4.47;;;;;;;;;;5082304;28;20044;-75
2021/05/04 00:04:57;;;;;;;8.23;4.40;;;;;;;;;;5083864;28;20020;-74
2021/05/04 00:07:23;;;;;;;6.80;4.43;;;;;;;;;;5092780;28;20122;-74
2021/05/04 00:09:49;;;;;;;9.85;4.47;;;;;;;;;;5086190;28;21516;-74
2021/05/04 00:12:15;;;;;;;11.18;4.85;;;;;;;;;;5082256;28;20444;-74
2021/05/04 00:14:41;;;;;;;7.38;4.60;;;;;;;;;;5083177;28;20028;-76
2021/05/04 00:17:07;;;;;;;11.80;4.70;;;;;;;;;;5073152;28;20036;-74
2021/05/04 00:19:33;;;;;;;9.77;4.60;;;;;;;;;;5073914;28;20032;-75
2021/05/04 00:22:00;;;;;;;6.55;4.70;;;;;;;;;;5073249;28;20024;-74
2021/05/04 00:24:26;;;;;;;9.38;5.00;;;;;;;;;;5082986;28;20036;-75
2021/05/04 00:26:52;;;;;;;7.13;4.17;;;;;;;;;;5080043;28;20029;-75
2021/05/04 00:29:18;;;;;;;6.82;4.45;;;;;;;;;;5082324;28;20024;-76
2021/05/04 00:31:44;;;;;;;8.82;4.45;;;;;;;;;;5073046;28;20029;-74
2021/05/04 00:34:10;;;;;;;9.10;4.72;;;;;;;;;;5077350;28;20042;-75
2021/05/04 00:36:36;;;;;;;7.73;4.70;;;;;;;;;;5080277;28;20042;-75
2021/05/04 00:39:05;;;;;;;6.50;4.25;;;;;;;;;;5091382;28;20032;-75
2021/05/04 00:41:31;;;;;;;5.88;4.07;;;;;;;;;;5079838;28;20048;-74
2021/05/04 00:43:57;;;;;;;8.80;4.43;;;;;;;;;;5073940;28;20067;-75
2021/05/04 00:46:23;;;;;;;6.93;4.13;;;;;;;;;;5091441;28;20569;-74
2021/05/04 00:48:48;;;;;;;6.80;4.28;;;;;;;;;;5089174;28;20177;-74
2021/05/04 00:51:15;;;;;;;7.38;4.20;;;;;;;;;;5071485;28;20029;-74
2021/05/04 00:53:41;;;;;;;6.47;4.03;;;;;;;;;;5071217;28;20513;-75
2021/05/04 00:56:08;;;;;;;6.25;4.07;;;;;;;;;;5091622;28;20044;-76
2021/05/04 00:58:34;;;;;;;6.55;4.15;;;;;;;;;;5083514;28;20499;-74
2021/05/04 01:01:01;;;;;;;6.40;3.83;;;;;;;;;;5092009;28;20408;-75
2021/05/04 01:03:27;;;;;;;7.45;4.45;;;;;;;;;;5088542;28;20064;-75
2021/05/04 01:05:53;;;;;;;8.80;3.75;;;;;;;;;;5087619;28;20032;-74
2021/05/04 01:08:19;;;;;;;7.78;4.22;;;;;;;;;;5076455;28;20101;-74
2021/05/04 01:10:45;;;;;;;8.37;4.17;;;;;;;;;;5076569;28;20024;-76
2021/05/04 01:13:11;;;;;;;6.28;4.07;;;;;;;;;;5071384;28;20058;-74
2021/05/04 01:15:37;;;;;;;7.07;3.95;;;;;;;;;;5090405;28;20466;-74
2021/05/04 01:18:03;;;;;;;10.10;3.95;;;;;;;;;;5091173;28;20072;-75
2021/05/04 01:20:29;;;;;;;7.10;4.30;;;;;;;;;;5076188;28;20528;-74
2021/05/04 01:22:55;;;;;;;6.28;3.97;;;;;;;;;;5080439;28;20377;-75
2021/05/04 01:25:21;;;;;;;7.15;4.22;;;;;;;;;;5089113;28;20429;-74
2021/05/04 01:27:47;;;;;;;6.65;3.70;;;;;;;;;;5090906;28;20121;-73
2021/05/04 01:30:13;;;;;;;7.75;3.97;;;;;;;;;;5078285;28;20940;-73
2021/05/04 01:32:39;;;;;;;7.13;4.22;;;;;;;;;;5078847;28;20028;-73
2021/05/04 01:35:10;;;;;;;6.57;3.70;;;;;;;;;;5088158;28;20103;-73
2021/05/04 01:37:37;;;;;;;5.82;3.90;;;;;;;;;;5086989;28;20532;-76
2021/05/04 01:40:04;;;;;;;7.68;4.47;;;;;;;;;;5079845;28;20028;-74
2021/05/04 01:42:30;;;;;;;8.60;4.30;;;;;;;;;;5081135;28;20528;-75
2021/05/04 01:44:56;;;;;;;8.10;3.85;;;;;;;;;;5090139;28;20039;-73
2021/05/04 01:47:21;;;;;;;7.28;3.92;;;;;;;;;;5090699;28;20115;-74
2021/05/04 01:49:47;;;;;;;11.65;4.43;;;;;;;;;;5087982;28;20024;-75
2021/05/04 01:52:13;;;;;;;9.33;4.00;;;;;;;;;;5090191;28;20031;-74
2021/05/04 01:54:40;;;;;;;5.30;3.67;;;;;;;;;;5090652;28;20028;-74
2021/05/04 01:57:06;;;;;;;8.23;3.90;;;;;;;;;;5090652;28;20036;-75
2021/05/04 01:59:36;;;;;;;6.30;3.95;;;;;;;;;;5084764;28;20119;-74
2021/05/04 02:02:02;;;;;;;5.95;3.75;;;;;;;;;;5090136;28;20043;-76
2021/05/04 02:04:31;;;;;;;9.45;4.22;;;;;;;;;;5082021;28;20059;-74
2021/05/04 02:06:57;;;;;;;5.53;3.40;;;;;;;;;;5080675;28;20490;-75
2021/05/04 02:09:23;;;;;;;5.72;3.88;;;;;;;;;;5080672;28;20462;-76
2021/05/04 02:11:49;;;;;;;8.65;3.95;;;;;;;;;;5084427;28;20028;-74
2021/05/04 02:14:15;;;;;;;5.85;3.95;;;;;;;;;;5088890;28;20107;-75
2021/05/04 02:16:41;;;;;;;7.25;3.65;;;;;;;;;;5074642;28;20099;-74
2021/05/04 02:19:07;;;;;;;5.82;3.80;;;;;;;;;;5087453;28;20437;-73
2021/05/04 02:21:33;;;;;;;6.35;3.47;;;;;;;;;;5070267;28;20024;-76
2021/05/04 02:23:59;;;;;;;5.55;3.63;;;;;;;;;;5070161;28;20052;-75
2021/05/04 02:26:25;;;;;;;5.93;3.93;;;;;;;;;;5072231;28;20118;-74
2021/05/04 02:28:51;;;;;;;6.13;3.42;;;;;;;;;;5089927;28;20413;-74
2021/05/04 02:31:17;;;;;;;5.65;4.18;;;;;;;;;;5070409;28;20060;-75
2021/05/04 02:33:44;;;;;;;5.53;3.78;;;;;;;;;;5074927;28;20094;-74
2021/05/04 02:36:10;;;;;;;10.52;5.22;;;;;;;;;;5072975;28;20020;-74
2021/05/04 02:38:36;;;;;;;6.55;3.60;;;;;;;;;;5078741;28;20052;-74
2021/05/04 02:41:03;;;;;;;5.83;3.77;;;;;;;;;;5072709;28;20047;-76
2021/05/04 02:43:29;;;;;;;6.47;3.72;;;;;;;;;;5085161;28;20024;-74
2021/05/04 02:45:55;;;;;;;5.70;3.58;;;;;;;;;;5089648;28;20044;-75
2021/05/04 02:48:21;;;;;;;5.63;3.67;;;;;;;;;;5087614;28;20024;-77
2021/05/04 02:50:47;;;;;;;7.25;3.75;;;;;;;;;;5086471;28;20016;-75
2021/05/04 02:53:14;;;;;;;9.85;3.70;;;;;;;;;;5078834;28;20024;-74
2021/05/04 02:55:40;;;;;;;9.80;3.80;;;;;;;;;;5069603;28;20024;-75
2021/05/04 02:58:06;;;;;;;5.75;3.75;;;;;;;;;;5070009;28;20469;-75
2021/05/04 03:00:32;;;;;;;5.33;3.47;;;;;;;;;;5075917;28;20051;-75
2021/05/04 03:02:58;;;;;;;5.97;3.58;;;;;;;;;;5078343;28;20024;-74
2021/05/04 03:05:24;;;;;;;6.28;4.15;;;;;;;;;;5076645;28;20454;-73
2021/05/04 03:07:50;;;;;;;4.88;3.55;;;;;;;;;;5079510;28;20251;-76
2021/05/04 03:10:16;;;;;;;6.68;3.58;;;;;;;;;;5079229;28;20044;-74
2021/05/04 03:12:42;;;;;;;8.07;3.60;;;;;;;;;;5081165;28;20028;-75
2021/05/04 03:15:09;;;;;;;6.03;4.07;;;;;;;;;;5089952;28;20070;-77
2021/05/04 03:17:35;;;;;;;7.85;3.42;;;;;;;;;;5088194;28;20285;-74
2021/05/04 03:20:01;;;;;;;5.57;3.30;;;;;;;;;;5075508;28;20495;-73
2021/05/04 03:22:27;;;;;;;5.60;3.53;;;;;;;;;;5071492;28;20523;-74
2021/05/04 03:24:53;;;;;;;6.88;3.78;;;;;;;;;;5073292;28;20028;-74
2021/05/04 03:27:19;;;;;;;7.07;3.30;;;;;;;;;;5077097;28;20042;-74
2021/05/04 03:29:45;;;;;;;5.90;3.27;;;;;;;;;;5093292;28;20024;-75
2021/05/04 03:32:11;;;;;;;5.18;3.30;;;;;;;;;;5080736;28;20699;-75
2021/05/04 03:34:37;;;;;;;7.28;3.55;;;;;;;;;;5073132;28;20050;-75
2021/05/04 03:37:03;;;;;;;3.70;3.00;;;;;;;;;;5072557;28;20029;-74
2021/05/04 03:39:29;;;;;;;6.57;3.23;;;;;;;;;;5073102;28;20036;-75
2021/05/04 03:41:55;;;;;;;9.07;3.50;;;;;;;;;;5074282;28;20040;-74
2021/05/04 03:44:21;;;;;;;7.28;3.28;;;;;;;;;;5091219;28;20032;-75
2021/05/04 03:46:47;;;;;;;5.03;3.47;;;;;;;;;;5092422;28;20024;-76
2021/05/04 03:49:13;;;;;;;5.00;3.30;;;;;;;;;;5075409;28;20040;-76
2021/05/04 03:51:39;;;;;;;5.60;2.95;;;;;;;;;;5083136;28;20257;-75
2021/05/04 03:54:05;;;;;;;5.57;3.00;;;;;;;;;;5075616;28;20213;-75
2021/05/04 03:56:31;;;;;;;5.53;3.40;;;;;;;;;;5074161;28;20020;-75
2021/05/04 03:58:58;;;;;;;9.20;3.50;;;;;;;;;;5074086;28;20040;-75
2021/05/04 04:01:24;;;;;;;4.90;3.33;;;;;;;;;;5077116;28;20063;-76
2021/05/04 04:03:50;;;;;;;6.97;3.50;;;;;;;;;;5092830;28;20078;-75
2021/05/04 04:06:16;;;;;;;6.93;3.10;;;;;;;;;;5078821;28;20374;-75
2021/05/04 04:08:43;;;;;;;8.98;3.40;;;;;;;;;;5087962;28;20464;-75
2021/05/04 04:11:08;;;;;;;;;;;;;;;;;;5093249;28;20047;-75
2021/05/04 04:13:34;;;;;;;5.15;3.00;;;;;;;;;;5081433;28;20343;-72
2021/05/04 04:16:01;;;;;;;8.68;3.40;;;;;;;;;;5071987;28;20043;-73
2021/05/04 04:18:27;;;;;;;3.50;2.80;;;;;;;;;;5075548;28;20032;-75
2021/05/04 04:20:53;;;;;;;4.45;3.10;;;;;;;;;;5072378;28;20020;-74
2021/05/04 04:23:19;;;;;;;5.97;3.40;;;;;;;;;;5072015;28;20054;-74
2021/05/04 04:25:45;;;;;;;4.43;3.17;;;;;;;;;;5071583;28;20025;-74
2021/05/04 04:28:11;;;;;;;4.35;2.90;;;;;;;;;;5089494;28;20032;-75
2021/05/04 04:30:37;;;;;;;4.43;3.05;;;;;;;;;;5091415;28;20034;-74
2021/05/04 04:33:04;;;;;;;6.28;3.20;;;;;;;;;;5075177;28;20123;-74
2021/05/04 04:35:31;;;;;;;7.32;3.05;;;;;;;;;;5071538;28;20532;-74
2021/05/04 04:37:57;;;;;;;6.80;3.00;;;;;;;;;;5086461;28;20058;-73
2021/05/04 04:40:23;;;;;;;3.92;3.03;;;;;;;;;;5092154;28;20020;-74
2021/05/04 04:42:49;;;;;;;6.38;2.95;;;;;;;;;;5084307;28;20033;-75
2021/05/04 04:45:15;;;;;;;6.00;3.10;;;;;;;;;;5070738;28;20062;-73
2021/05/04 04:47:41;;;;;;;6.22;3.15;;;;;;;;;;5085514;28;20581;-74
2021/05/04 04:50:07;;;;;;;6.40;4.22;;;;;;;;;;5091896;28;20042;-77
2021/05/04 04:52:33;;;;;;;10.43;5.13;;;;;;;;;;5080453;28;20028;-75
2021/05/04 04:54:59;;;;;;;8.82;5.30;;;;;;;;;;5071084;28;20033;-75
2021/05/04 04:57:25;;;;;;;10.55;4.80;;;;;;;;;;5076762;28;20178;-75
2021/05/04 04:59:51;;;;;;;14.07;4.60;;;;;;;;;;5082723;28;20052;-76
2021/05/04 05:02:17;;;;;;;7.90;4.60;;;;;;;;;;5090339;28;20292;-74
2021/05/04 05:04:44;;;;;;;11.80;4.43;;;;;;;;;;5075378;28;20786;-77
2021/05/04 05:07:10;;;;;;;12.43;4.50;;;;;;;;;;5083403;28;20024;-76
2021/05/04 05:09:36;;;;;;;8.60;4.68;;;;;;;;;;5080080;28;20020;-74
2021/05/04 05:12:03;;;;;;;10.65;4.30;;;;;;;;;;5078091;28;20051;-75
2021/05/04 05:14:29;;;;;;;11.27;3.58;;;;;;;;;;5072799;28;20043;-75
2021/05/04 05:16:55;;;;;;;12.73;4.20;;;;;;;;;;5070798;28;20025;-76
2021/05/04 05:19:21;;;;;;;9.63;4.00;;;;;;;;;;5074710;28;20282;-74
2021/05/04 05:21:47;;;;;;;7.57;3.40;;;;;;;;;;5077552;28;20466;-74
2021/05/04 05:24:13;;;;;;;10.73;3.90;;;;;;;;;;5077476;28;20373;-74
2021/05/04 05:26:40;;;;;;;6.43;3.40;;;;;;;;;;5089880;28;20055;-73
2021/05/04 05:29:06;;;;;;;11.43;3.72;;;;;;;;;;5090766;28;20386;-74
2021/05/04 05:31:34;;;;;;;12.13;4.00;;;;;;;;;;5082436;28;20028;-72
2021/05/04 05:34:00;;;;;;;7.10;3.38;;;;;;;;;;5083443;28;20146;-75
2021/05/04 05:36:26;;;;;;;6.65;3.30;;;;;;;;;;5079468;28;20110;-74
2021/05/04 05:38:52;;;;;;;6.82;3.33;;;;;;;;;;5090683;28;20162;-74
2021/05/04 05:41:18;;;;;;;7.90;3.10;;;;;;;;;;5075949;28;20028;-74
2021/05/04 05:43:44;;;;;;;5.97;3.30;;;;;;;;;;5083476;28;20028;-73
2021/05/04 05:46:10;;;;;;;7.30;3.27;;;;;;;;;;5079327;28;20067;-74
2021/05/04 05:48:36;;;;;;;7.00;3.37;;;;;;;;;;5078695;28;20760;-74
2021/05/04 05:51:02;;;;;;;7.22;2.90;;;;;;;;;;5079427;28;20263;-74
2021/05/04 05:53:28;;;;;;;5.75;2.83;;;;;;;;;;5075591;28;20070;-74
2021/05/04 05:55:54;;;;;;;6.05;3.13;;;;;;;;;;5077525;28;20044;-74
2021/05/04 05:58:20;;;;;;;4.50;2.70;;;;;;;;;;5070076;28;20029;-74
2021/05/04 06:00:46;;;;;;;5.75;3.03;;;;;;;;;;5090573;28;20300;-74
2021/05/04 06:03:12;;;;;;;6.63;3.08;;;;;;;;;;5082902;28;20059;-73
2021/05/04 06:05:38;;;;;;;5.28;2.90;;;;;;;;;;5085467;28;20428;-74
2021/05/04 06:08:05;;;;;;;3.97;2.72;;;;;;;;;;5069683;28;20098;-74
2021/05/04 06:10:31;;;;;;;6.65;3.03;;;;;;;;;;5070356;28;20441;-75
2021/05/04 06:13:01;;;;;;;5.85;3.05;;;;;;;;;;5086416;28;20028;-74
2021/05/04 06:15:27;;;;;;;6.10;2.90;;;;;;;;;;5090492;28;20034;-75
2021/05/04 06:17:53;;;;;;;4.05;2.55;;;;;;;;;;5074320;28;20442;-74
2021/05/04 06:20:19;;;;;;;5.93;2.80;;;;;;;;;;5070066;28;20021;-74
2021/05/04 06:22:45;;;;;;;6.75;2.97;;;;;;;;;;5070360;28;20028;-73
2021/05/04 06:25:11;;;;;;;5.38;2.83;;;;;;;;;;5070508;28;20060;-73
2021/05/04 06:27:37;;;;;;;4.53;2.78;;;;;;;;;;5069674;28;20415;-74
2021/05/04 06:30:05;;;;;;;7.28;3.15;;;;;;;;;;5069917;28;20071;-73
2021/05/04 06:32:31;;;;;;;5.47;2.95;;;;;;;;;;5080520;28;20024;-74
2021/05/04 06:34:57;;;;;;;6.22;2.80;;;;;;;;;;5088410;28;20046;-73
2021/05/04 06:37:23;;;;;;;5.35;2.75;;;;;;;;;;5068496;28;20044;-73
2021/05/04 06:39:50;;;;;;;7.43;3.13;;;;;;;;;;5071248;28;20405;-73
2021/05/04 06:42:16;;;;;;;6.65;2.90;;;;;;;;;;5087058;28;20028;-73
2021/05/04 06:44:42;;;;;;;7.28;3.40;;;;;;;;;;5089788;28;20036;-73
2021/05/04 06:47:08;;;;;;;5.80;3.10;;;;;;;;;;5089437;28;20074;-73
2021/05/04 06:49:36;;;;;;;5.83;3.13;;;;;;;;;;5089649;28;20381;-73
2021/05/04 06:52:02;;;;;;;7.35;3.45;;;;;;;;;;5074585;28;20186;-73
2021/05/04 06:54:28;;;;;;;6.70;2.92;;;;;;;;;;5069794;28;20032;-74
2021/05/04 06:56:54;;;;;;;7.20;3.00;;;;;;;;;;5070996;28;20466;-74
2021/05/04 06:59:20;;;;;;;5.20;3.07;;;;;;;;;;5076082;28;20197;-74
2021/05/04 07:01:46;;;;;;;5.60;3.13;;;;;;;;;;5086363;28;20043;-74
2021/05/04 07:04:14;;;;;;;6.60;3.67;;;;;;;;;;5091121;28;21685;-73
2021/05/04 07:06:40;;;;;;;6.78;3.80;;;;;;;;;;5101921;28;20031;-74
2021/05/04 07:09:06;;;;;;;8.77;4.10;;;;;;;;;;5092072;28;20036;-77
2021/05/04 07:11:33;;;;;;;7.90;3.55;;;;;;;;;;5092150;28;20032;-73
2021/05/04 07:14:01;;;;;;;6.50;3.15;;;;;;;;;;5075599;28;20035;-72
2021/05/04 07:16:27;;;;;;;5.85;2.97;;;;;;;;;;5073359;28;20016;-73
2021/05/04 07:18:53;;;;;;;5.03;2.73;;;;;;;;;;5072536;28;20059;-75
2021/05/04 07:21:19;;;;;;;8.37;2.93;;;;;;;;;;5073302;28;20398;-74
2021/05/04 07:23:45;;;;;;;5.65;2.80;;;;;;;;;;5073566;28;20111;-75
2021/05/04 07:26:13;;;;;;;7.90;2.80;;;;;;;;;;5077118;28;20111;-74
2021/05/04 07:28:39;;;;;;;7.43;2.92;;;;;;;;;;5078533;28;20592;-75
2021/05/04 07:31:05;;;;;;;5.07;2.90;;;;;;;;;;5093127;28;20036;-75
2021/05/04 07:33:31;;;;;;;5.32;2.70;;;;;;;;;;5093483;28;20028;-74
2021/05/04 07:35:58;;;;;;;5.63;2.80;;;;;;;;;;5093347;28;20031;-73
2021/05/04 07:38:24;;;;;;;;;;;;;;;;;;5092665;28;20394;-73
2021/05/04 07:40:50;;;;;;;3.67;2.80;;;;;;;;;;5087513;28;19908;-74
2021/05/04 07:43:16;;;;;;;5.72;2.92;;;;;;;;;;5072693;28;20035;-73
2021/05/04 07:45:42;;;;;;;4.47;2.53;;;;;;;;;;5072772;28;20045;-74
2021/05/04 07:48:10;;;;;;;5.23;2.70;;;;;;;;;;5072918;28;20270;-73
2021/05/04 07:50:37;;;;;;;6.32;2.50;;;;;;;;;;5073260;28;20298;-74
2021/05/04 07:53:03;;;;;;;5.50;2.70;;;;;;;;;;5071428;28;20470;-74
2021/05/04 07:55:29;;;;;;;3.75;2.70;;;;;;;;;;5072715;28;20021;-74
2021/05/04 07:57:55;;;;;;;5.65;2.70;;;;;;;;;;5072615;28;20123;-74
2021/05/04 08:00:21;;;;;;;6.85;3.00;;;;;;;;;;5073364;28;20446;-73
2021/05/04 08:02:47;;;;;;;5.20;2.50;;;;;;;;;;5072162;28;20031;-74
2021/05/04 08:05:13;;;;;;;4.40;2.67;;;;;;;;;;5072733;28;20028;-73
2021/05/04 08:07:39;;;;;;;4.63;2.70;;;;;;;;;;5073024;28;20096;-74
2021/05/04 08:10:06;;;;;;;5.07;2.50;;;;;;;;;;5071744;28;20115;-75
2021/05/04 08:12:33;;;;;;;4.07;2.50;;;;;;;;;;5072198;28;20894;-73
2021/05/04 08:15:00;;;;;;;3.35;2.42;;;;;;;;;;5072452;28;20024;-73
2021/05/04 08:17:29;;;;;;;7.57;3.08;;;;;;;;;;5072121;28;20028;-74
2021/05/04 08:19:58;;;;;;;5.40;2.70;;;;;;;;;;5071479;28;20021;-74
2021/05/04 08:22:24;;;;;;;6.07;2.40;;;;;;;;;;5085849;28;20016;-74
2021/05/04 08:24:51;;;;;;;3.67;2.53;;;;;;;;;;5083563;28;20467;-73
2021/05/04 08:27:17;;;;;;;4.93;2.47;;;;;;;;;;5075398;28;20289;-74
2021/05/04 08:29:43;;;;;;;4.60;2.53;;;;;;;;;;5091718;28;20024;-74
2021/05/04 08:32:09;;;;;;;2.97;2.40;;;;;;;;;;5072752;28;20329;-74
2021/05/04 08:34:35;;;;;;;3.88;2.45;;;;;;;;;;5081495;28;20613;-74
2021/05/04 08:37:02;;;;;;;5.10;2.63;;;;;;;;;;5084896;28;20060;-72
2021/05/04 08:39:28;;;;;;;4.47;2.80;;;;;;;;;;5095012;28;20123;-74
2021/05/04 08:41:54;;;;;;;4.23;2.60;;;;;;;;;;5082599;28;20873;-72
2021/05/04 08:44:21;;;;;;;3.95;2.30;;;;;;;;;;5078405;28;20278;-72
2021/05/04 08:46:48;;;;;;;3.92;2.20;;;;;;;;;;5097131;28;20035;-73
2021/05/04 08:49:15;;;;;;;4.18;2.47;;;;;;;;;;5096276;28;20035;-72
2021/05/04 08:51:42;;;;;;;4.00;2.40;;;;;;;;;;5090158;28;20386;-73
2021/05/04 08:54:08;;;;;;;4.07;2.40;;;;;;;;;;5091672;28;20032;-73
2021/05/04 08:56:35;;;;;;;4.03;2.58;;;;;;;;;;5091791;28;20028;-72
2021/05/04 08:59:01;;;;;;;4.57;2.47;;;;;;;;;;5090861;28;20044;-74
2021/05/04 09:01:27;;;;;;;4.97;2.58;;;;;;;;;;5091453;28;20036;-73
2021/05/04 09:03:58;;;;;;;3.13;2.30;;;;;;;;;;5091785;28;20099;-74
2021/05/04 09:06:36;;;;;;;5.07;2.47;;;;;;;;;;5091514;28;20024;-75
2021/05/04 09:09:32;;;;;;;3.92;2.40;;;;;;;;;;5091536;28;20017;-75
2021/05/04 09:12:09;;;;;;;;;;;;;;;;;;5091189;28;20036;-72
2021/05/04 09:14:53;;;;;;;4.72;2.53;;;;;;;;;;5090639;28;20255;-72
2021/05/04 09:22:32;;;;;;;6.47;2.40;;;;;;;;;;5090988;28;20062;-73
2021/05/04 09:24:58;;;;;;;6.50;2.40;;;;;;;;;;5091183;28;20024;-72
2021/05/04 09:27:23;;;;;;;5.13;2.50;;;;;;;;;;5082795;28;20106;-72
2021/05/04 09:29:55;;;;;;;4.33;2.40;;;;;;;;;;5101525;28;20031;-73
2021/05/04 09:32:27;;;;;;;5.03;2.30;;;;;;;;;;5079236;28;20040;-73
2021/05/04 09:34:54;;;;;;;3.65;2.35;;;;;;;;;;5091195;28;20467;-73
2021/05/04 09:37:21;;;;;;;5.10;2.40;;;;;;;;;;5081393;28;20457;-73
2021/05/04 09:39:47;;;;;;;3.92;2.50;;;;;;;;;;5070538;28;20036;-72
2021/05/04 09:42:13;;;;;;;5.15;2.30;;;;;;;;;;5082008;28;20555;-73
2021/05/04 09:44:41;;;;;;;3.03;2.20;;;;;;;;;;5090601;28;20020;-72
2021/05/04 09:47:07;;;;;;;5.70;2.40;;;;;;;;;;5088660;28;20285;-72
2021/05/04 09:49:35;;;;;;;4.30;2.20;;;;;;;;;;5070369;28;20159;-72
2021/05/04 09:52:20;;;;;;;3.40;2.22;;;;;;;;;;5090034;28;20048;-72
2021/05/04 09:54:46;;;;;;;3.80;2.30;;;;;;;;;;5088574;28;20025;-73
2021/05/04 09:57:31;;;;;;;3.92;2.53;;;;;;;;;;5076156;28;20039;-72
2021/05/04 09:59:57;;;;;;;3.35;2.38;;;;;;;;;;5070556;28;20036;-71
2021/05/04 10:02:23;;;;;;;7.15;2.35;;;;;;;;;;5073665;28;20115;-73
2021/05/04 10:04:53;;;;;;;3.80;2.20;;;;;;;;;;5082535;28;20386;-72
2021/05/04 10:07:23;;;;;;;6.25;2.60;;;;;;;;;;5072618;28;20016;-73
2021/05/04 10:09:49;;;;;;;6.10;2.60;;;;;;;;;;5084661;28;20048;-72
2021/05/04 10:12:15;;;;;;;;;;;;;;;;;;5080553;28;20414;-73
2021/05/04 10:14:42;;;;;;;4.68;2.25;;;;;;;;;;5092122;27;19966;-73
2021/05/04 10:17:08;;;;;;;6.65;2.80;;;;;;;;;;5074721;28;20032;-73
2021/05/04 10:19:37;;;;;;;5.25;2.72;;;;;;;;;;5069890;28;20044;-73
2021/05/04 10:22:07;;;;;;;7.43;2.60;;;;;;;;;;5069960;28;20028;-72
2021/05/04 10:24:35;;;;;;;3.63;2.50;;;;;;;;;;5071059;28;20043;-73
2021/05/04 10:27:03;;;;;;;3.45;2.45;;;;;;;;;;5077053;28;20047;-72
2021/05/04 10:29:29;;;;;;;5.60;2.60;;;;;;;;;;5080694;28;20032;-72
2021/05/04 10:31:58;;;;;;;6.38;2.28;;;;;;;;;;5079718;28;20409;-72
2021/05/04 10:34:25;;;;;;;5.35;2.33;;;;;;;;;;5078743;28;20056;-73
2021/05/04 10:36:58;;;;;;;4.35;2.58;;;;;;;;;;5080984;28;20043;-75
2021/05/04 10:39:32;;;;;;;5.38;2.75;;;;;;;;;;5081579;28;20036;-74
2021/05/04 10:42:00;;;;;;;6.55;2.67;;;;;;;;;;5080140;28;20164;-75
2021/05/04 10:44:26;;;;;;;4.93;2.55;;;;;;;;;;5084401;28;20116;-74
2021/05/04 10:46:52;;;;;;;7.83;3.10;;;;;;;;;;5076726;28;20032;-75
2021/05/04 10:49:19;;;;;;;7.17;2.60;;;;;;;;;;5074532;28;20278;-74
2021/05/04 10:51:45;;;;;;;;;;;;;;;;;;5098663;28;20035;-75
2021/05/04 10:54:12;;;;;;;10.13;2.65;;;;;;;;;;5099727;28;19922;-75
2021/05/04 10:56:39;;;;;;;5.95;2.60;;;;;;;;;;5085328;28;20046;-76
2021/05/04 10:59:06;;;;;;;3.78;2.53;;;;;;;;;;5077562;28;20094;-75
2021/05/04 11:01:32;;;;;;;6.70;2.40;;;;;;;;;;5094066;28;20030;-75
2021/05/04 11:03:59;;;;;;;4.45;2.38;;;;;;;;;;5100702;27;20046;-77
2021/05/04 11:06:25;;;;;;;5.07;2.40;;;;;;;;;;5114401;28;20065;-76
2021/05/04 11:08:51;;;;;;;5.40;2.60;;;;;;;;;;5112100;28;20035;-75
2021/05/04 11:11:23;;;;;;;2.87;2.27;;;;;;;;;;5093494;28;20043;-75
2021/05/04 11:13:58;;;;;;;5.05;2.63;;;;;;;;;;5100407;28;20500;-75
2021/05/04 11:16:30;;;;;;;3.25;2.30;;;;;;;;;;5114117;28;20028;-74
2021/05/04 11:19:04;;;;;;;3.92;2.20;;;;;;;;;;5099715;28;20482;-73
2021/05/04 11:21:47;;;;;;;5.43;2.30;;;;;;;;;;5093720;28;20034;-74
2021/05/04 11:24:13;;;;;;;4.07;2.40;;;;;;;;;;5088179;28;20125;-74
2021/05/04 11:27:05;;;;;;;9.60;3.33;;;;;;;;;;5079185;28;20170;-75
2021/05/04 11:29:34;;;;;;;29.42;5.10;;;;;;;;;;5089332;28;20119;-75
2021/05/04 11:32:18;;;;;;;33.55;6.65;;;;;;;;;;5081838;28;20542;-75
2021/05/04 11:34:45;;;;;;;34.28;7.60;;;;;;;;;;5072784;28;20044;-74
2021/05/04 11:37:36;;;;;;;35.75;8.85;;;;;;;;;;5073087;28;20486;-76
2021/05/04 11:40:10;;;;;;;46.88;10.40;;;;;;;;;;5084494;28;20055;-75
2021/05/04 11:42:37;;;;;;;50.28;11.43;;;;;;;;;;5092617;28;20470;-74
2021/05/04 11:45:07;;;;;;;46.95;10.85;;;;;;;;;;5092245;28;20050;-76
2021/05/04 11:47:33;;;;;;;53.67;11.25;;;;;;;;;;5091747;28;20367;-75
2021/05/04 11:50:02;;;;;;;50.58;11.15;;;;;;;;;;5093298;28;20024;-75
2021/05/04 11:52:28;;;;;;;47.65;11.25;;;;;;;;;;5093342;28;20492;-75
2021/05/04 11:55:03;;;;;;;49.03;11.97;;;;;;;;;;5080405;28;20027;-75
2021/05/04 11:57:29;;;;;;;43.63;11.63;;;;;;;;;;5072988;28;20109;-76
2021/05/04 11:59:55;;;;;;;52.93;12.60;;;;;;;;;;5072556;28;20096;-74
2021/05/04 12:02:28;;;;;;;47.60;12.47;;;;;;;;;;5072697;28;20021;-76
2021/05/04 12:04:54;;;;;;;51.03;12.65;;;;;;;;;;5070840;28;20120;-74
2021/05/04 12:07:41;;;;;;;53.93;12.70;;;;;;;;;;5073003;28;20043;-75
2021/05/04 12:10:28;;;;;;;48.25;12.38;;;;;;;;;;5088175;28;20056;-75
2021/05/04 12:12:54;;;;;;;;;;;;;;;;;;5093170;28;20077;-74
2021/05/04 12:15:21;;;;;;;53.45;12.55;;;;;;;;;;5092074;28;19962;-76
2021/05/04 12:17:59;;;;;;;39.90;11.23;;;;;;;;;;5092956;28;20024;-76
2021/05/04 12:20:26;;;;;;;47.90;13.23;;;;;;;;;;5092733;28;20036;-75
2021/05/04 12:22:53;;;;;;;50.67;12.77;;;;;;;;;;5092655;28;20048;-76
2021/05/04 12:25:22;;;;;;;40.30;12.40;;;;;;;;;;5070960;28;20117;-75
2021/05/04 12:27:49;;;;;;;39.78;11.43;;;;;;;;;;5072091;28;20445;-76
2021/05/04 12:30:19;;;;;;;46.90;13.20;;;;;;;;;;5074128;28;20043;-75
2021/05/04 12:32:45;;;;;;;46.75;12.80;;;;;;;;;;5092490;28;20028;-75
2021/05/04 12:35:32;;;;;;;45.90;12.43;;;;;;;;;;5092447;28;20101;-75
2021/05/04 12:38:04;;;;;;;45.22;11.90;;;;;;;;;;5091525;28;20663;-74
2021/05/04 12:40:31;;;;;;;45.60;11.82;;;;;;;;;;5070656;28;20082;-75
2021/05/04 12:43:10;;;;;;;47.90;12.00;;;;;;;;;;5071949;28;20025;-75
2021/05/04 12:45:36;;;;;;;43.50;12.63;;;;;;;;;;5071342;28;20072;-76
2021/05/04 12:48:02;;;;;;;45.07;11.70;;;;;;;;;;5071584;28;20060;-76
2021/05/04 12:50:32;;;;;;;35.13;11.60;;;;;;;;;;5070511;28;20115;-76
2021/05/04 12:52:58;;;;;;;40.83;11.98;;;;;;;;;;5071787;28;20024;-76
2021/05/04 12:55:24;;;;;;;39.08;11.93;;;;;;;;;;5071508;28;20040;-75
2021/05/04 12:58:10;;;;;;;38.27;11.70;;;;;;;;;;5070290;28;20378;-76
2021/05/04 13:00:36;;;;;;;38.15;10.98;;;;;;;;;;5071070;28;20028;-77
2021/05/04 13:03:17;;;;;;;38.43;11.37;;;;;;;;;;5071538;28;20067;-76
2021/05/04 13:05:43;;;;;;;36.75;10.73;;;;;;;;;;5071561;28;20121;-76
2021/05/04 13:08:10;;;;;;;29.88;10.38;;;;;;;;;;5076370;28;20107;-75
2021/05/04 13:28:24;;;;;;;35.40;11.20;;;;;;;;;;5082540;28;20425;-75
2021/05/04 13:30:18;;;;;;;35.65;11.45;;;;;;;;;;5091627;28;20067;-75
2021/05/04 13:32:48;;;;;;;36.85;10.75;;;;;;;;;;5091504;28;20043;-75
2021/05/04 13:35:18;;;;;;;33.63;10.68;;;;;;;;;;5080109;28;20067;-75
2021/05/04 13:37:49;;;;;;;34.20;10.80;;;;;;;;;;5070809;28;20040;-75
2021/05/04 13:48:22;;;;;;;35.17;11.35;;;;;;;;;;5085912;28;20067;-75
2021/05/04 13:50:48;;;;;;;29.52;10.65;;;;;;;;;;5070763;28;20110;-75
2021/05/04 13:53:14;;;;;;;31.40;10.82;;;;;;;;;;5076948;28;20126;-75
2021/05/04 13:55:41;;;;;;;31.60;10.48;;;;;;;;;;5086267;28;20048;-75
2021/05/04 13:58:08;;;;;;;30.13;10.32;;;;;;;;;;5079860;28;20041;-76
2021/05/04 14:01:01;;;;;;;29.65;10.07;;;;;;;;;;5069937;28;20028;-75
2021/05/04 14:03:29;;;;;;;;;;;;;;;;;;5073504;28;20017;-76
2021/05/04 14:27:12;;;;;;;11.30;4.38;;;;;;;;;;5090172;28;20074;-75
2021/05/04 14:29:38;;;;;;;9.98;4.13;;;;;;;;;;5090204;28;20063;-77
2021/05/04 14:32:04;;;;;;;9.10;3.78;;;;;;;;;;5090632;28;20418;-77
2021/05/04 14:34:32;;;;;;;9.23;3.85;;;;;;;;;;5085518;28;20027;-77
2021/05/04 14:39:47;;;;;;;11.90;3.40;;;;;;;;;;5109991;27;20042;-77
2021/05/04 14:58:39;;;;;;;14.02;3.45;;;;;;;;;;5084542;28;20394;-77
2021/05/04 15:01:51;;;;;;;6.68;3.38;;;;;;;;;;5089795;28;20458;-76
2021/05/04 15:03:51;;;;;;;8.75;3.40;;;;;;;;;;5068854;28;20422;-77
2021/05/04 15:06:17;;;;;;;7.73;2.80;;;;;;;;;;5069726;28;20032;-77
2021/05/04 15:08:43;;;;;;;7.13;2.83;;;;;;;;;;5069608;28;20536;-78
2021/05/04 15:11:10;;;;;;;6.43;2.83;;;;;;;;;;5068517;28;20070;-78
2021/05/04 15:13:43;;;;;;;8.07;3.22;;;;;;;;;;5069876;28;20043;-76
2021/05/04 15:21:44;;;;;;;7.90;3.15;;;;;;;;;;5072998;28;20073;-75
2021/05/04 15:24:10;;;;;;;14.43;3.60;;;;;;;;;;5082794;28;20050;-76
2021/05/04 15:26:36;;;;;;;6.80;3.25;;;;;;;;;;5077504;28;20133;-74
2021/05/04 15:29:03;;;;;;;7.95;3.10;;;;;;;;;;5093243;28;20134;-74
2021/05/04 15:31:36;;;;;;;6.30;3.13;;;;;;;;;;5093127;28;20444;-78
2021/05/04 15:34:05;;;;;;;7.28;3.00;;;;;;;;;;5091596;28;20089;-74
2021/05/04 15:36:32;;;;;;;8.05;3.05;;;;;;;;;;5077533;28;20072;-74
2021/05/04 15:38:58;;;;;;;9.52;3.75;;;;;;;;;;5078982;28;20043;-73
2021/05/04 15:41:24;;;;;;;7.53;2.90;;;;;;;;;;5076550;28;20020;-75
2021/05/04 15:43:53;;;;;;;6.33;3.23;;;;;;;;;;5076435;28;20046;-74
2021/05/04 15:46:30;;;;;;;7.35;3.10;;;;;;;;;;5086924;28;20085;-74
2021/05/04 15:49:03;;;;;;;5.10;3.10;;;;;;;;;;5091805;28;20103;-73
2021/05/04 16:02:35;;;;;;;13.77;3.60;;;;;;;;;;5076279;28;20428;-76
2021/05/04 16:07:57;;;;;;;10.23;3.33;;;;;;;;;;5077430;28;20051;-78
2021/05/04 16:10:23;;;;;;;6.07;3.08;;;;;;;;;;5076469;28;20070;-78
2021/05/04 16:12:49;;;;;;;29.45;3.83;;;;;;;;;;5072573;28;20044;-75